createdAt,value
2018-09-03T00:01:30.819Z,17.39
2018-09-03T00:04:05.440Z,17.45
2018-09-03T00:06:40.030Z,17.47
2018-09-03T00:09:14.456Z,17.48
2018-09-03T00:11:48.857Z,17.47
2018-09-03T00:14:36.246Z,17.54
2018-09-03T00:17:10.829Z,17.64
2018-09-03T00:19:45.372Z,17.67
2018-09-03T00:22:19.952Z,17.75
2018-09-03T00:24:54.532Z,17.66
2018-09-03T00:27:28.975Z,17.75
2018-09-03T00:30:03.473Z,17.70
2018-09-03T00:32:43.348Z,17.68
2018-09-03T00:35:23.280Z,17.76
2018-09-03T00:38:03.184Z,17.77
2018-09-03T00:40:43.019Z,17.73
2018-09-03T00:43:22.884Z,17.61
2018-09-03T00:47:06.528Z,17.48
2018-09-03T00:49:41.621Z,17.35
2018-09-03T00:52:16.200Z,17.17
2018-09-03T00:54:50.969Z,17.05
2018-09-03T00:57:25.540Z,16.91
2018-09-03T01:00:00.099Z,16.87
2018-09-03T01:02:34.755Z,16.77
2018-09-03T01:05:09.287Z,16.64
2018-09-03T01:07:43.724Z,16.57
2018-09-03T01:10:18.125Z,16.55
2018-09-03T01:12:52.812Z,16.55
2018-09-03T01:15:29.756Z,16.49
2018-09-03T01:18:04.607Z,16.41
2018-09-03T01:20:39.016Z,16.38
2018-09-03T01:26:20.955Z,16.31
2018-09-03T01:28:55.557Z,16.33
2018-09-03T01:31:30.237Z,16.38
2018-09-03T01:34:05.257Z,16.54
2018-09-03T01:36:39.912Z,16.69
2018-09-03T01:39:14.440Z,16.75
2018-09-03T01:41:49.030Z,16.87
2018-09-03T01:44:23.536Z,16.97
2018-09-03T01:46:58.225Z,16.91
2018-09-03T01:49:32.784Z,16.95
2018-09-03T01:52:07.638Z,16.99
2018-09-03T01:54:42.356Z,17.02
2018-09-03T01:57:17.365Z,17.07
2018-09-03T01:59:52.040Z,17.08
2018-09-03T02:02:26.549Z,17.10
2018-09-03T02:05:01.228Z,17.16
2018-09-03T02:07:35.864Z,17.19
2018-09-03T02:10:10.844Z,17.09
2018-09-03T02:12:45.220Z,17.09
2018-09-03T02:15:19.781Z,17.08
2018-09-03T02:17:54.482Z,16.95
2018-09-03T02:20:29.064Z,16.99
2018-09-03T02:23:03.920Z,16.99
2018-09-03T02:25:38.636Z,16.97
2018-09-03T02:28:13.208Z,16.92
2018-09-03T02:30:47.698Z,16.78
2018-09-03T02:33:22.226Z,16.64
2018-09-03T02:35:56.946Z,16.66
2018-09-03T02:38:31.464Z,16.57
2018-09-03T02:41:06.648Z,16.56
2018-09-03T02:43:41.637Z,16.61
2018-09-03T02:46:16.128Z,16.63
2018-09-03T02:48:50.684Z,16.61
2018-09-03T02:51:25.359Z,16.68
2018-09-03T02:54:06.193Z,16.68
2018-09-03T02:56:48.403Z,16.75
2018-09-03T03:02:21.613Z,16.71
2018-09-03T03:04:56.276Z,16.74
2018-09-03T03:07:30.928Z,16.79
2018-09-03T03:10:05.836Z,16.75
2018-09-03T03:12:40.365Z,16.70
2018-09-03T03:15:18.901Z,16.72
2018-09-03T03:17:53.404Z,16.69
2018-09-03T03:20:28.083Z,16.64
2018-09-03T03:23:02.604Z,16.63
2018-09-03T03:25:37.484Z,16.53
2018-09-03T03:28:11.908Z,16.44
2018-09-03T03:30:46.361Z,16.32
2018-09-03T03:33:20.801Z,16.13
2018-09-03T03:35:55.244Z,16.07
2018-09-03T03:38:29.720Z,15.92
2018-09-03T03:41:04.409Z,15.90
2018-09-03T03:43:38.925Z,15.88
2018-09-03T03:46:14.085Z,15.91
2018-09-03T03:48:48.695Z,15.98
2018-09-03T03:51:23.272Z,16.01
2018-09-03T03:53:57.947Z,16.05
2018-09-03T03:56:32.580Z,16.07
2018-09-03T03:59:07.169Z,16.08
2018-09-03T04:01:41.800Z,16.08
2018-09-03T04:04:16.427Z,16.11
2018-09-03T04:06:51.056Z,16.12
2018-09-03T04:09:25.491Z,16.13
2018-09-03T04:12:00.049Z,16.18
2018-09-03T04:14:34.673Z,16.23
2018-09-03T04:17:09.396Z,16.22
2018-09-03T04:19:48.198Z,16.18
2018-09-03T04:22:22.748Z,16.21
2018-09-03T04:24:57.601Z,16.27
2018-09-03T04:27:32.276Z,16.33
2018-09-03T04:30:07.321Z,16.35
2018-09-03T04:32:41.884Z,16.41
2018-09-03T04:35:16.570Z,16.46
2018-09-03T04:37:51.336Z,16.44
2018-09-03T04:40:26.072Z,16.36
2018-09-03T04:43:00.684Z,16.45
2018-09-03T04:45:35.281Z,16.42
2018-09-03T04:48:09.912Z,16.48
2018-09-03T04:50:44.432Z,16.51
2018-09-03T04:53:19.145Z,16.59
2018-09-03T04:55:53.764Z,16.58
2018-09-03T04:58:28.297Z,16.56
2018-09-03T05:01:02.760Z,16.62
2018-09-03T05:03:37.567Z,16.58
2018-09-03T05:06:12.142Z,16.56
2018-09-03T05:08:46.684Z,16.61
2018-09-03T05:11:21.285Z,16.64
2018-09-03T05:13:55.909Z,16.61
2018-09-03T05:16:30.776Z,16.65
2018-09-03T05:19:05.649Z,16.67
2018-09-03T05:21:40.211Z,16.73
2018-09-03T05:24:14.781Z,16.76
2018-09-03T05:26:49.564Z,16.84
2018-09-03T05:29:24.468Z,16.89
2018-09-03T05:31:59.007Z,16.88
2018-09-03T05:34:33.907Z,16.92
2018-09-03T05:37:08.389Z,16.96
2018-09-03T05:39:43.279Z,16.97
2018-09-03T05:42:18.045Z,16.95
2018-09-03T05:44:52.690Z,16.99
2018-09-03T05:47:27.417Z,16.97
2018-09-03T05:50:02.137Z,17.04
2018-09-03T05:52:37.121Z,17.08
2018-09-03T05:55:12.069Z,17.17
2018-09-03T05:57:46.516Z,17.18
2018-09-03T06:00:21.338Z,17.20
2018-09-03T06:02:55.876Z,17.30
2018-09-03T06:05:30.296Z,17.26
2018-09-03T06:08:05.027Z,17.30
2018-09-03T06:10:40.020Z,17.29
2018-09-03T06:13:14.472Z,17.24
2018-09-03T06:15:49.172Z,17.29
2018-09-03T06:18:24.109Z,17.34
2018-09-03T06:20:59.145Z,17.36
2018-09-03T06:23:33.927Z,17.31
2018-09-03T06:26:08.449Z,17.38
2018-09-03T06:28:42.949Z,17.38
2018-09-03T06:31:17.592Z,17.36
2018-09-03T06:33:52.308Z,17.46
2018-09-03T06:36:26.985Z,17.48
2018-09-03T06:39:01.465Z,17.49
2018-09-03T06:41:35.981Z,17.47
2018-09-03T06:44:11.022Z,17.36
2018-09-03T06:46:45.546Z,17.46
2018-09-03T06:49:24.112Z,17.40
2018-09-03T06:57:56.826Z,17.26
2018-09-03T07:00:31.685Z,17.31
2018-09-03T07:09:08.401Z,17.44
2018-09-03T07:11:43.108Z,17.54
2018-09-03T07:14:17.710Z,17.68
2018-09-03T07:16:52.429Z,17.82
2018-09-03T07:19:27.463Z,17.97
2018-09-03T07:22:02.068Z,18.04
2018-09-03T07:24:36.934Z,18.11
2018-09-03T07:27:11.313Z,18.17
2018-09-03T07:29:45.767Z,18.23
2018-09-03T07:32:20.369Z,18.09
2018-09-03T07:34:54.984Z,18.19
2018-09-03T07:37:29.599Z,18.13
2018-09-03T07:40:04.236Z,17.89
2018-09-03T07:42:38.842Z,17.92
2018-09-03T07:45:13.376Z,17.84
2018-09-03T07:47:47.960Z,17.78
2018-09-03T07:50:22.894Z,17.82
2018-09-03T07:52:57.844Z,17.74
2018-09-03T07:55:32.232Z,17.73
2018-09-03T07:58:09.224Z,17.69
2018-09-03T08:00:43.722Z,17.71
2018-09-03T08:03:18.776Z,17.62
2018-09-03T08:05:53.493Z,17.57
2018-09-03T08:08:28.098Z,17.55
2018-09-03T08:11:02.716Z,17.46
2018-09-03T08:13:41.852Z,17.42
2018-09-03T08:16:16.605Z,17.39
2018-09-03T08:18:51.222Z,17.50
2018-09-03T08:21:25.789Z,17.54
2018-09-03T08:24:00.328Z,17.71
2018-09-03T08:26:34.794Z,17.68
2018-09-03T08:29:09.526Z,17.83
2018-09-03T08:31:44.828Z,17.80
2018-09-03T08:34:20.104Z,17.87
2018-09-03T08:36:54.432Z,17.99
2018-09-03T08:39:28.950Z,18.10
2018-09-03T08:42:03.620Z,18.03
2018-09-03T08:44:39.701Z,17.90
2018-09-03T08:47:14.225Z,17.89
2018-09-03T08:49:48.866Z,17.82
2018-09-03T08:52:23.530Z,17.60
2018-09-03T08:55:00.160Z,17.66
2018-09-03T08:57:35.366Z,17.66
2018-09-03T09:00:10.073Z,17.79
2018-09-03T09:02:44.617Z,17.92
2018-09-03T09:05:19.108Z,17.97
2018-09-03T09:07:53.820Z,17.97
2018-09-03T09:10:28.521Z,18.02
2018-09-03T09:13:03.150Z,18.05
2018-09-03T09:15:37.672Z,18.04
2018-09-03T09:18:12.252Z,17.92
2018-09-03T09:20:47.427Z,17.99
2018-09-03T09:23:21.842Z,17.95
2018-09-03T09:25:56.504Z,17.96
2018-09-03T09:28:31.077Z,18.08
2018-09-03T09:31:19.546Z,18.21
2018-09-03T09:33:54.129Z,18.27
2018-09-03T09:36:28.846Z,18.11
2018-09-03T09:39:03.740Z,18.09
2018-09-03T09:41:38.185Z,18.27
2018-09-03T09:44:12.685Z,18.87
2018-09-03T09:46:47.316Z,19.29
2018-09-03T09:49:23.489Z,19.24
2018-09-03T09:52:16.564Z,19.42
2018-09-03T09:54:51.392Z,19.11
2018-09-03T09:57:33.804Z,18.91
2018-09-03T10:00:11.168Z,19.09
2018-09-03T10:02:45.621Z,19.29
2018-09-03T10:05:20.351Z,19.36
2018-09-03T10:07:54.915Z,19.27
2018-09-03T10:10:29.756Z,19.62
2018-09-03T10:13:04.448Z,19.62
2018-09-03T10:15:39.381Z,19.77
2018-09-03T10:18:14.056Z,19.95
2018-09-03T10:20:48.811Z,20.16
2018-09-03T10:23:23.316Z,20.23
2018-09-03T10:25:58.185Z,20.26
2018-09-03T10:28:34.720Z,20.16
2018-09-03T10:31:09.117Z,20.78
2018-09-03T10:33:43.441Z,21.48
2018-09-03T10:36:17.941Z,21.28
2018-09-03T10:38:52.504Z,21.45
2018-09-03T10:41:27.022Z,21.92
2018-09-03T10:47:02.707Z,22.79
2018-09-03T10:49:37.052Z,23.53
2018-09-03T10:52:11.619Z,24.60
2018-09-03T10:54:46.137Z,25.13
2018-09-03T10:57:20.821Z,25.27
2018-09-03T10:59:55.240Z,25.25
2018-09-03T11:02:30.181Z,25.16
2018-09-03T11:05:04.865Z,25.51
2018-09-03T11:07:40.495Z,25.18
2018-09-03T11:10:14.972Z,25.10
2018-09-03T11:12:49.558Z,24.11
2018-09-03T11:15:24.545Z,23.03
2018-09-03T11:17:58.939Z,22.96
2018-09-03T11:20:33.565Z,22.59
2018-09-03T11:23:08.073Z,22.38
2018-09-03T11:25:42.768Z,22.31
2018-09-03T11:28:17.412Z,21.97
2018-09-03T11:30:52.313Z,21.85
2018-09-03T11:33:44.948Z,22.24
2018-09-03T11:36:37.965Z,22.75
2018-09-03T11:39:13.113Z,23.40
2018-09-03T11:41:47.536Z,23.17
2018-09-03T11:44:22.140Z,23.01
2018-09-03T11:46:56.749Z,22.39
2018-09-03T11:49:31.568Z,22.62
2018-09-03T11:52:06.265Z,21.82
2018-09-03T11:54:52.068Z,21.48
2018-09-03T11:57:36.257Z,21.97
2018-09-03T12:00:13.725Z,22.17
2018-09-03T12:02:48.397Z,21.94
2018-09-03T12:05:23.029Z,21.79
2018-09-03T12:07:57.667Z,21.73
2018-09-03T12:10:32.117Z,21.94
2018-09-03T12:13:06.728Z,22.03
2018-09-03T12:15:45.344Z,22.15
2018-09-03T12:18:19.904Z,22.23
2018-09-03T12:20:54.541Z,22.34
2018-09-03T12:23:29.271Z,22.37
2018-09-03T12:26:03.875Z,22.25
2018-09-03T12:28:38.624Z,22.26
2018-09-03T12:31:13.315Z,22.14
2018-09-03T12:33:47.953Z,21.87
2018-09-03T12:36:22.216Z,21.61
2018-09-03T12:38:56.587Z,21.66
2018-09-03T12:41:30.969Z,21.37
2018-09-03T12:44:05.433Z,21.73
2018-09-03T12:46:39.853Z,21.56
2018-09-03T12:49:14.257Z,21.83
2018-09-03T12:51:48.725Z,22.13
2018-09-03T12:54:22.907Z,22.09
2018-09-03T12:56:57.588Z,22.74
2018-09-03T12:59:32.060Z,22.89
2018-09-03T13:02:07.668Z,23.09
2018-09-03T13:04:41.850Z,22.57
2018-09-03T13:07:16.483Z,22.63
2018-09-03T13:09:51.015Z,22.39
2018-09-03T13:12:25.360Z,22.62
2018-09-03T13:14:59.756Z,22.18
2018-09-03T13:17:34.249Z,22.50
2018-09-03T13:20:08.635Z,22.35
2018-09-03T13:22:43.106Z,22.06
2018-09-03T13:25:18.229Z,21.96
2018-09-03T13:27:52.699Z,22.06
2018-09-03T13:30:27.340Z,22.19
2018-09-03T13:33:01.851Z,22.21
2018-09-03T13:35:36.190Z,22.26
2018-09-03T13:38:10.561Z,22.57
2018-09-03T13:40:45.133Z,22.76
2018-09-03T13:43:19.624Z,23.08
2018-09-03T13:45:56.884Z,23.04
2018-09-03T13:48:44.099Z,22.81
2018-09-03T13:51:18.538Z,22.81
2018-09-03T13:53:53.816Z,22.77
2018-09-03T13:56:28.642Z,22.74
2018-09-03T13:59:03.026Z,22.78
2018-09-03T14:01:37.495Z,22.79
2018-09-03T14:04:21.723Z,22.82
2018-09-03T14:10:03.563Z,22.50
2018-09-03T14:12:37.827Z,22.22
2018-09-03T14:15:24.643Z,21.99
2018-09-03T14:17:59.051Z,21.97
2018-09-03T14:20:33.756Z,21.94
2018-09-03T14:23:08.356Z,22.01
2018-09-03T14:25:52.122Z,21.99
2018-09-03T14:28:26.883Z,21.99
2018-09-03T14:31:01.413Z,22.12
2018-09-03T14:36:35.703Z,22.13
2018-09-03T14:39:11.420Z,22.35
2018-09-03T14:41:46.495Z,22.28
2018-09-03T14:44:20.810Z,22.28
2018-09-03T14:46:55.466Z,22.39
2018-09-03T14:49:30.955Z,22.30
2018-09-03T14:52:05.794Z,22.53
2018-09-03T14:54:40.215Z,22.85
2018-09-03T14:57:14.774Z,22.67
2018-09-03T15:02:48.527Z,23.16
2018-09-03T15:05:23.198Z,23.20
2018-09-03T15:07:57.489Z,23.01
2018-09-03T15:10:50.935Z,22.93
2018-09-03T15:13:40.660Z,22.80
2018-09-03T15:16:15.193Z,22.86
2018-09-03T15:18:49.745Z,23.00
2018-09-03T15:21:24.204Z,22.81
2018-09-03T15:23:58.736Z,22.61
2018-09-03T15:26:33.170Z,22.52
2018-09-03T15:29:08.057Z,22.21
2018-09-03T15:31:42.535Z,22.39
2018-09-03T15:37:40.599Z,22.38
2018-09-03T15:40:15.128Z,22.38
2018-09-03T15:42:49.914Z,22.26
2018-09-03T15:45:24.103Z,22.43
2018-09-03T15:47:58.843Z,22.57
2018-09-03T15:50:33.046Z,22.53
2018-09-03T15:53:07.672Z,22.52
2018-09-03T15:55:43.283Z,22.82
2018-09-03T15:58:18.148Z,22.69
2018-09-03T16:00:52.658Z,22.81
2018-09-03T16:03:27.119Z,22.19
2018-09-03T16:14:58.065Z,21.80
2018-09-03T16:17:32.355Z,21.78
2018-09-03T16:20:06.763Z,21.79
2018-09-03T16:22:41.190Z,21.70
2018-09-03T16:25:15.875Z,21.63
2018-09-03T16:27:50.382Z,21.59
2018-09-03T16:30:24.729Z,21.53
2018-09-03T16:32:59.189Z,21.59
2018-09-03T16:35:33.496Z,21.54
2018-09-03T16:38:07.884Z,21.46
2018-09-03T16:40:42.347Z,21.38
2018-09-03T16:43:16.741Z,21.39
2018-09-03T16:45:51.040Z,21.38
2018-09-03T16:48:25.600Z,21.36
2018-09-03T16:51:00.027Z,21.36
2018-09-03T16:53:34.738Z,21.29
2018-09-03T16:56:10.028Z,21.35
2018-09-03T16:58:44.568Z,21.33
2018-09-03T17:01:19.163Z,21.35
2018-09-03T17:03:53.380Z,21.17
2018-09-03T17:06:27.889Z,21.33
2018-09-03T17:09:02.303Z,21.19
2018-09-03T17:11:36.687Z,21.03
2018-09-03T17:14:11.068Z,21.06
2018-09-03T17:16:45.598Z,21.04
2018-09-03T17:19:20.450Z,21.07
2018-09-03T17:21:54.824Z,20.99
2018-09-03T17:24:29.424Z,21.01
2018-09-03T17:27:04.018Z,20.88
2018-09-03T17:29:38.316Z,20.91
2018-09-03T17:32:12.732Z,20.85
2018-09-03T17:34:47.352Z,20.92
2018-09-03T17:37:21.724Z,20.89
2018-09-03T17:39:56.157Z,20.85
2018-09-03T17:42:30.977Z,20.81
2018-09-03T17:45:06.568Z,20.86
2018-09-03T17:47:41.416Z,20.77
2018-09-03T17:50:16.226Z,20.67
2018-09-03T17:52:50.894Z,20.65
2018-09-03T17:55:43.973Z,20.68
2018-09-03T17:58:18.608Z,20.67
2018-09-03T18:00:53.233Z,20.63
2018-09-03T18:03:28.126Z,20.40
2018-09-03T18:06:02.860Z,20.46
2018-09-03T18:08:37.653Z,20.51
2018-09-03T18:11:12.339Z,20.44
2018-09-03T18:13:47.419Z,20.40
2018-09-03T18:16:22.744Z,20.34
2018-09-03T18:18:57.357Z,20.25
2018-09-03T18:21:32.112Z,20.12
2018-09-03T18:24:07.209Z,20.25
2018-09-03T18:26:43.203Z,20.30
2018-09-03T18:29:30.125Z,20.08
2018-09-03T18:32:05.117Z,20.01
2018-09-03T18:34:39.801Z,20.04
2018-09-03T18:37:14.662Z,19.98
2018-09-03T18:39:52.981Z,20.01
2018-09-03T18:42:32.182Z,19.98
2018-09-03T18:45:12.256Z,20.11
2018-09-03T18:47:47.353Z,20.06
2018-09-03T18:50:39.899Z,20.11
2018-09-03T18:53:19.852Z,20.04
2018-09-03T18:55:54.403Z,19.92
2018-09-03T18:58:47.592Z,19.88
2018-09-03T19:01:24.252Z,19.90
2018-09-03T19:03:59.057Z,19.92
2018-09-03T19:06:33.473Z,19.98
2018-09-03T19:09:09.105Z,19.96
2018-09-03T19:11:45.460Z,19.90
2018-09-03T19:14:43.061Z,19.80
2018-09-03T19:17:17.629Z,19.76
2018-09-03T19:19:52.218Z,19.74
2018-09-03T19:22:32.761Z,19.71
2018-09-03T19:25:07.517Z,19.77
2018-09-03T19:27:42.434Z,19.82
2018-09-03T19:30:17.308Z,19.75
2018-09-03T19:35:51.544Z,19.45
2018-09-03T19:38:26.399Z,19.30
2018-09-03T19:41:01.465Z,19.23
2018-09-03T19:43:36.001Z,19.16
2018-09-03T19:46:10.734Z,19.22
2018-09-03T19:48:45.495Z,19.16
2018-09-03T19:51:20.256Z,19.22
2018-09-03T19:54:05.727Z,19.22
2018-09-03T19:59:39.877Z,19.22
2018-09-03T20:02:16.202Z,19.22
2018-09-03T20:04:50.974Z,19.21
2018-09-03T20:07:27.606Z,19.21
2018-09-03T20:10:09.388Z,19.18
2018-09-03T20:12:44.284Z,19.16
2018-09-03T20:15:25.126Z,19.14
2018-09-03T20:17:59.870Z,19.14
2018-09-03T20:20:34.750Z,19.14
2018-09-03T20:23:13.238Z,19.15
2018-09-03T20:25:47.721Z,19.17
2018-09-03T20:28:24.015Z,19.16
2018-09-03T20:30:58.485Z,19.21
2018-09-03T20:33:33.006Z,19.17
2018-09-03T20:36:07.557Z,19.17
2018-09-03T20:38:42.026Z,19.14
2018-09-03T20:41:17.009Z,19.12
2018-09-03T20:43:51.510Z,19.12
2018-09-03T20:46:26.230Z,19.12
2018-09-03T20:49:07.041Z,19.15
2018-09-03T20:54:46.487Z,19.08
2018-09-03T20:57:28.201Z,19.14
2018-09-03T21:00:02.919Z,19.09
2018-09-03T21:02:37.665Z,19.13
2018-09-03T21:05:12.352Z,19.18
2018-09-03T21:07:46.950Z,19.18
2018-09-03T21:10:21.530Z,19.07
2018-09-03T21:12:56.134Z,18.99
2018-09-03T21:18:29.697Z,18.88
2018-09-03T21:24:09.571Z,19.12
2018-09-03T21:26:57.596Z,19.23
2018-09-03T21:29:32.342Z,19.29
2018-09-03T21:32:06.981Z,19.32
2018-09-03T21:34:41.853Z,19.35
2018-09-03T21:37:16.567Z,19.38
2018-09-03T21:39:51.133Z,19.44
2018-09-03T21:42:25.793Z,19.43
2018-09-03T21:45:00.361Z,19.46
2018-09-03T21:50:41.117Z,19.52
2018-09-03T21:53:37.062Z,19.63
2018-09-03T21:56:11.685Z,19.50
2018-09-03T21:58:46.756Z,19.48
2018-09-03T22:01:21.405Z,19.47
2018-09-03T22:03:56.034Z,19.44
2018-09-03T22:06:31.914Z,19.42
2018-09-03T22:09:07.192Z,19.43
2018-09-03T22:11:41.843Z,19.47
2018-09-03T22:14:16.436Z,19.49
2018-09-03T22:16:51.016Z,19.51
2018-09-03T22:19:25.593Z,19.52
2018-09-03T22:22:00.452Z,19.50
2018-09-03T22:24:35.199Z,19.44
2018-09-03T22:27:09.760Z,19.38
2018-09-03T22:29:44.248Z,19.27
2018-09-03T22:32:18.959Z,19.23
2018-09-03T22:34:53.488Z,19.10
2018-09-03T22:37:28.044Z,19.11
2018-09-03T22:40:02.726Z,19.10
2018-09-03T22:42:37.308Z,19.09
2018-09-03T22:45:22.013Z,19.04
2018-09-03T22:47:56.653Z,18.97
2018-09-03T22:50:31.374Z,18.98
2018-09-03T22:53:06.253Z,18.92
2018-09-03T22:55:40.825Z,18.87
2018-09-03T22:58:15.485Z,18.78
2018-09-03T23:00:50.405Z,18.70
2018-09-03T23:03:24.864Z,18.59
2018-09-03T23:05:59.497Z,18.62
2018-09-03T23:08:34.135Z,18.57
2018-09-03T23:11:08.927Z,18.50
2018-09-03T23:13:44.101Z,18.52
2018-09-03T23:16:35.601Z,18.52
2018-09-03T23:19:11.117Z,18.52
2018-09-03T23:21:45.736Z,18.51
2018-09-03T23:24:20.536Z,18.48
2018-09-03T23:27:09.061Z,18.44
2018-09-03T23:29:43.713Z,18.48
2018-09-03T23:32:23.245Z,18.50
2018-09-03T23:34:58.319Z,18.47
2018-09-03T23:37:32.808Z,18.35
2018-09-03T23:40:08.365Z,18.34
2018-09-03T23:42:43.188Z,18.31
2018-09-03T23:45:17.865Z,18.37
2018-09-03T23:47:52.364Z,18.38
2018-09-03T23:50:26.972Z,18.43
2018-09-03T23:53:01.650Z,18.49
2018-09-03T23:55:36.185Z,18.70
2018-09-03T23:58:10.862Z,18.75
